Time;durP1;ratioP1;P1;durP2;ratioP2;P2;SDS_P1;SDS_P2;PMS_P1;PMS_P2;Temp;Humidity;BMP_temperature;BMP_pressure;BME280_temperature;BME280_humidity;BME280_pressure;Samples;Min_cycle;Max_cycle;Signal;HPM_P1;HPM_P2
2022/05/25 00:00:18;;;;;;;2.22;1.63;;;14.00;99.90;;;;;;5011098;28;20199;-82
2022/05/25 00:02:46;;;;;;;4.68;1.60;;;14.00;99.90;;;;;;5013110;28;20216;-82
2022/05/25 00:05:15;;;;;;;3.85;1.58;;;14.00;99.90;;;;;;5025902;28;20208;-79
2022/05/25 00:07:43;;;;;;;2.75;1.30;;;14.10;99.90;;;;;;5025888;28;20562;-79
2022/05/25 00:10:11;;;;;;;2.75;1.38;;;13.90;99.90;;;;;;5015061;28;20196;-79
2022/05/25 00:12:39;;;;;;;2.05;1.33;;;14.00;99.90;;;;;;5013968;28;20219;-79
2022/05/25 00:15:12;;;;;;;1.40;1.30;;;13.80;99.90;;;;;;5035973;28;20204;-79
2022/05/25 00:17:39;;;;;;;2.50;1.33;;;13.60;99.90;;;;;;5032050;28;20210;-79
2022/05/25 00:20:08;;;;;;;3.38;1.33;;;13.60;99.90;;;;;;5032424;28;20230;-79
2022/05/25 00:22:44;;;;;;;1.50;1.40;;;13.60;99.90;;;;;;5020977;28;20220;-79
2022/05/25 00:25:14;;;;;;;2.05;1.30;;;13.60;99.90;;;;;;5030458;28;20215;-79
2022/05/25 00:27:42;;;;;;;3.63;1.70;;;13.70;99.90;;;;;;5015242;28;20230;-79
2022/05/25 00:30:12;;;;;;;2.40;1.40;;;13.60;99.90;;;;;;5010203;28;20205;-82
2022/05/25 00:32:41;;;;;;;3.05;2.30;;;13.60;99.90;;;;;;5012599;28;20242;-80
2022/05/25 00:35:09;;;;;;;3.78;1.60;;;13.70;99.90;;;;;;5017353;28;20196;-80
2022/05/25 00:37:37;;;;;;;5.85;1.58;;;13.70;99.90;;;;;;5027943;28;20561;-80
2022/05/25 00:40:05;;;;;;;3.60;1.67;;;13.80;99.90;;;;;;5015027;28;20204;-80
2022/05/25 00:42:32;;;;;;;4.05;2.00;;;13.80;99.90;;;;;;5015501;28;20220;-80
2022/05/25 00:45:00;;;;;;;2.40;1.65;;;13.70;99.90;;;;;;5014115;28;20214;-80
2022/05/25 00:47:28;;;;;;;2.58;1.50;;;13.60;99.90;;;;;;5016083;28;20243;-80
2022/05/25 00:49:58;;;;;;;1.17;1.00;;;13.50;99.90;;;;;;5032094;28;20208;-80
2022/05/25 00:52:27;;;;;;;2.20;1.15;;;13.50;99.90;;;;;;5030823;28;20242;-79
2022/05/25 00:55:00;;;;;;;4.50;1.80;;;13.70;99.90;;;;;;5027278;28;20214;-79
2022/05/25 00:57:31;;;;;;;2.90;1.70;;;13.40;99.90;;;;;;5034354;28;20195;-80
2022/05/25 01:00:04;;;;;;;3.30;1.45;;;13.50;99.90;;;;;;5012452;28;20206;-80
2022/05/25 01:02:36;;;;;;;4.72;1.55;;;13.30;99.90;;;;;;5012711;28;20224;-80
2022/05/25 01:05:05;;;;;;;4.57;2.08;;;13.10;99.90;;;;;;5014450;28;20207;-80
2022/05/25 01:07:53;;;;;;;2.67;1.50;;;13.00;99.90;;;;;;5012654;28;20212;-79
2022/05/25 01:10:34;;;;;;;2.85;1.83;;;13.10;99.90;;;;;;5013356;28;20214;-80
2022/05/25 01:13:13;;;;;;;3.50;1.70;;;13.10;99.90;;;;;;5034958;28;20255;-79
2022/05/25 01:15:51;;;;;;;3.35;2.30;;;13.10;99.90;;;;;;5016600;28;20240;-79
2022/05/25 01:18:29;;;;;;;3.17;2.35;;;13.10;99.90;;;;;;5016741;28;20191;-80
2022/05/25 01:21:00;;;;;;;3.33;2.13;;;13.10;99.90;;;;;;5030153;28;20203;-80
2022/05/25 01:23:44;;;;;;;3.38;2.20;;;13.10;99.90;;;;;;5027001;28;20228;-79
2022/05/25 01:26:57;;;;;;;3.45;2.53;;;13.10;99.90;;;;;;5031548;28;20203;-79
2022/05/25 01:29:53;;;;;;;2.97;2.20;;;13.10;99.90;;;;;;5001024;28;20219;-79
2022/05/25 01:32:28;;;;;;;4.43;2.67;;;13.20;99.90;;;;;;5025254;28;20257;-79
2022/05/25 01:35:01;;;;;;;4.00;3.00;;;13.30;99.90;;;;;;5045968;23;20223;-79
2022/05/25 01:37:40;;;;;;;4.63;2.90;;;13.30;99.90;;;;;;5024916;28;20210;-79
2022/05/25 01:40:17;;;;;;;5.47;3.05;;;13.10;99.90;;;;;;5020195;28;20552;-80
2022/05/25 01:42:47;;;;;;;3.83;2.80;;;13.00;99.90;;;;;;5008296;28;20188;-78
2022/05/25 01:45:18;;;;;;;3.58;3.00;;;13.00;99.90;;;;;;5008148;28;20219;-78
2022/05/25 01:47:49;;;;;;;3.95;2.70;;;13.00;99.90;;;;;;5026510;28;20204;-79
2022/05/25 01:50:39;;;;;;;3.50;2.97;;;13.00;99.90;;;;;;5021163;28;20200;-79
2022/05/25 01:53:09;;;;;;;4.05;3.25;;;13.00;99.90;;;;;;5022352;28;20208;-79
2022/05/25 01:55:42;;;;;;;5.47;3.58;;;12.90;99.90;;;;;;5005461;28;20210;-79
2022/05/25 01:58:13;;;;;;;4.63;3.45;;;12.80;99.90;;;;;;5005663;28;20558;-78
2022/05/25 02:00:45;;;;;;;4.05;3.15;;;12.90;99.90;;;;;;5010238;28;20211;-83
2022/05/25 02:06:57;;;;;;;5.40;3.38;;;12.90;99.90;;;;;;5008590;28;20188;-78
2022/05/25 02:09:46;;;;;;;5.53;3.30;;;12.90;99.90;;;;;;5022891;28;20231;-79
2022/05/25 02:12:28;;;;;;;5.80;3.20;;;12.90;99.90;;;;;;5023862;28;20211;-79
2022/05/25 02:15:01;;;;;;;4.32;3.25;;;12.90;99.90;;;;;;5029086;28;20227;-80
2022/05/25 02:17:35;;;;;;;4.05;3.50;;;13.00;99.90;;;;;;5029617;28;20207;-79
2022/05/25 02:20:10;;;;;;;4.85;3.15;;;13.00;99.90;;;;;;5019028;28;20221;-82
2022/05/25 02:22:43;;;;;;;4.43;3.17;;;12.90;99.90;;;;;;5024399;28;20200;-79
2022/05/25 02:25:15;;;;;;;5.13;3.67;;;12.80;99.90;;;;;;5027384;28;20224;-79
2022/05/25 02:27:48;;;;;;;4.78;3.78;;;12.80;99.90;;;;;;5023801;28;20198;-79
2022/05/25 02:30:34;;;;;;;3.88;3.45;;;12.70;99.90;;;;;;5012683;28;20206;-78
2022/05/25 02:33:09;;;;;;;3.83;3.47;;;12.80;99.90;;;;;;5013482;28;20204;-78
2022/05/25 02:35:39;;;;;;;5.03;3.60;;;12.80;99.90;;;;;;5027402;28;20210;-86
2022/05/25 02:38:09;;;;;;;3.92;3.53;;;12.80;99.90;;;;;;5014536;28;20227;-83
2022/05/25 02:40:39;;;;;;;4.40;4.00;;;12.80;99.90;;;;;;5025742;28;20196;-81
2022/05/25 02:43:09;;;;;;;6.60;3.60;;;12.80;99.90;;;;;;5024507;28;20215;-78
2022/05/25 02:45:38;;;;;;;6.03;3.80;;;12.90;99.90;;;;;;5010559;28;20203;-85
2022/05/25 02:48:07;;;;;;;5.35;3.78;;;12.90;99.90;;;;;;5026248;28;20254;-79
2022/05/25 02:50:35;;;;;;;4.18;3.78;;;12.70;99.90;;;;;;5011470;28;20196;-79
2022/05/25 02:53:04;;;;;;;5.07;3.75;;;12.70;99.90;;;;;;5023611;28;20208;-81
2022/05/25 02:55:32;;;;;;;6.05;3.65;;;12.80;99.90;;;;;;5028560;28;20200;-86
2022/05/25 02:57:59;;;;;;;5.45;4.22;;;12.70;99.90;;;;;;5027470;28;20199;-80
2022/05/25 03:00:27;;;;;;;5.05;4.32;;;12.70;99.90;;;;;;5012919;28;21311;-79
2022/05/25 03:02:56;;;;;;;4.60;3.30;;;12.80;99.90;;;;;;5028938;28;20215;-78
2022/05/25 03:05:25;;;;;;;6.70;3.95;;;12.80;99.90;;;;;;5013002;28;20199;-80
2022/05/25 03:07:53;;;;;;;4.72;3.13;;;12.80;99.90;;;;;;5027106;28;20192;-79
2022/05/25 03:10:21;;;;;;;7.57;3.83;;;12.90;99.90;;;;;;5029224;28;20223;-79
2022/05/25 03:12:48;;;;;;;3.97;3.60;;;12.60;99.90;;;;;;5028899;28;20211;-79
2022/05/25 03:15:20;;;;;;;4.88;4.38;;;12.50;99.90;;;;;;5026815;28;20681;-82
2022/05/25 03:17:50;;;;;;;8.02;4.90;;;12.50;99.90;;;;;;5032421;28;20206;-83
2022/05/25 03:20:19;;;;;;;4.38;3.80;;;12.50;99.90;;;;;;5013483;28;20203;-79
2022/05/25 03:22:48;;;;;;;5.88;4.40;;;12.70;99.90;;;;;;5026231;28;20215;-78
2022/05/25 03:25:15;;;;;;;5.77;4.07;;;12.60;99.90;;;;;;5023896;28;20219;-78
2022/05/25 03:27:44;;;;;;;5.20;3.75;;;12.40;99.90;;;;;;5007686;28;20208;-79
2022/05/25 03:30:13;;;;;;;5.57;4.35;;;12.50;99.90;;;;;;5030928;28;20231;-79
2022/05/25 03:32:41;;;;;;;5.43;4.63;;;12.30;99.90;;;;;;5026662;28;20212;-78
2022/05/25 03:35:10;;;;;;;5.83;4.13;;;12.20;99.90;;;;;;5019925;28;20693;-78
2022/05/25 03:37:38;;;;;;;6.20;4.10;;;12.40;99.90;;;;;;5023950;28;20949;-78
2022/05/25 03:40:09;;;;;;;5.80;4.17;;;12.30;99.90;;;;;;5010874;28;20212;-78
2022/05/25 03:42:37;;;;;;;7.07;4.33;;;12.40;99.90;;;;;;5010704;28;20200;-78
2022/05/25 03:45:06;;;;;;;6.40;4.23;;;12.20;99.90;;;;;;5009665;28;20696;-83
2022/05/25 03:47:33;;;;;;;4.70;4.25;;;12.50;99.90;;;;;;5002735;28;21273;-80
2022/05/25 03:50:01;;;;;;;4.38;3.97;;;12.50;99.90;;;;;;5024695;28;20207;-78
2022/05/25 03:52:29;;;;;;;7.27;4.47;;;12.50;99.90;;;;;;5007692;28;20211;-78
2022/05/25 03:54:56;;;;;;;6.50;4.10;;;12.60;99.90;;;;;;5028192;28;20724;-81
2022/05/25 03:57:25;;;;;;;4.07;3.67;;;12.60;99.90;;;;;;5024058;28;20196;-81
2022/05/25 03:59:52;;;;;;;6.95;3.67;;;12.60;99.90;;;;;;5025046;28;20203;-79
2022/05/25 04:02:20;;;;;;;5.22;4.38;;;12.60;99.90;;;;;;5025973;28;20207;-79
2022/05/25 04:04:47;;;;;;;4.72;3.63;;;12.60;99.90;;;;;;5005761;28;20226;-81
2022/05/25 04:07:15;;;;;;;5.55;4.20;;;12.60;99.90;;;;;;5009399;28;20527;-83
2022/05/25 04:09:42;;;;;;;6.17;4.20;;;12.70;99.90;;;;;;5025896;28;20220;-78
2022/05/25 04:12:09;;;;;;;5.03;4.10;;;12.40;99.90;;;;;;5008504;28;20203;-80
2022/05/25 04:14:39;;;;;;;5.95;3.95;;;12.40;99.90;;;;;;5025565;28;20219;-80
2022/05/25 04:17:07;;;;;;;7.70;4.27;;;12.40;99.90;;;;;;5024900;28;20199;-78
2022/05/25 04:19:38;;;;;;;7.20;4.13;;;12.40;99.90;;;;;;5011299;28;20203;-78
2022/05/25 04:22:06;;;;;;;5.73;4.97;;;12.40;99.90;;;;;;5025316;28;20222;-79
2022/05/25 04:24:33;;;;;;;5.10;4.47;;;12.40;99.90;;;;;;5022409;28;20227;-79
2022/05/25 04:27:01;;;;;;;5.83;4.40;;;12.40;99.90;;;;;;5020082;28;20202;-79
2022/05/25 04:29:28;;;;;;;5.10;4.60;;;12.60;99.90;;;;;;5023589;28;20578;-78
2022/05/25 04:31:57;;;;;;;6.60;4.45;;;12.60;99.90;;;;;;5023182;28;20577;-79
2022/05/25 04:34:24;;;;;;;4.93;4.40;;;12.70;99.90;;;;;;5007497;28;20219;-78
2022/05/25 04:36:52;;;;;;;5.88;4.90;;;12.60;99.90;;;;;;5030006;28;20693;-78
2022/05/25 04:39:19;;;;;;;7.00;4.90;;;12.70;99.90;;;;;;5018633;28;20207;-77
2022/05/25 04:41:48;;;;;;;7.75;5.10;;;12.60;99.90;;;;;;5024040;28;20214;-78
2022/05/25 04:44:15;;;;;;;7.30;4.77;;;12.60;99.90;;;;;;5025134;28;20230;-80
2022/05/25 04:46:42;;;;;;;5.72;5.05;;;12.60;99.90;;;;;;5024705;28;20200;-78
2022/05/25 04:49:11;;;;;;;6.10;5.03;;;12.70;99.90;;;;;;5022727;28;20681;-77
2022/05/25 04:51:38;;;;;;;7.03;5.20;;;12.80;99.90;;;;;;5028886;28;20565;-77
2022/05/25 04:54:06;;;;;;;8.05;5.28;;;12.90;99.90;;;;;;5011366;28;20234;-78
2022/05/25 04:59:48;;;;;;;7.18;5.30;;;12.90;99.90;;;;;;5004456;28;20203;-78
2022/05/25 05:02:20;;;;;;;7.43;6.03;;;12.90;99.90;;;;;;5009304;28;20199;-77
2022/05/25 05:04:54;;;;;;;9.73;5.90;;;12.80;99.90;;;;;;5019542;28;20224;-78
2022/05/25 05:07:34;;;;;;;6.20;5.50;;;12.80;99.90;;;;;;5005905;28;20202;-78
2022/05/25 05:10:12;;;;;;;7.28;5.35;;;12.90;99.90;;;;;;4996461;28;20204;-79
2022/05/25 05:12:54;;;;;;;6.22;5.07;;;12.90;99.90;;;;;;5022736;28;20203;-79
2022/05/25 05:15:22;;;;;;;6.63;5.63;;;12.90;99.90;;;;;;5002224;28;20204;-79
2022/05/25 05:17:51;;;;;;;6.65;5.90;;;13.10;99.90;;;;;;5021011;28;20208;-79
2022/05/25 05:20:34;;;;;;;9.73;6.57;;;13.10;99.90;;;;;;5004600;28;20203;-79
2022/05/25 05:23:02;;;;;;;11.43;6.72;;;12.90;99.90;;;;;;5005517;28;20204;-79
2022/05/25 05:25:36;;;;;;;9.07;6.70;;;12.90;99.90;;;;;;5007705;28;20190;-77
2022/05/25 05:28:11;;;;;;;7.47;5.83;;;12.80;99.90;;;;;;5032955;28;20198;-78
2022/05/25 05:30:43;;;;;;;10.63;7.17;;;12.90;99.90;;;;;;5019755;28;20207;-78
2022/05/25 05:33:11;;;;;;;10.50;7.10;;;12.90;99.90;;;;;;5018854;28;20195;-79
2022/05/25 05:35:40;;;;;;;8.57;6.17;;;13.00;99.90;;;;;;5017131;28;20230;-78
2022/05/25 05:38:13;;;;;;;8.33;5.77;;;12.90;99.90;;;;;;5019155;28;20214;-77
2022/05/25 05:40:41;;;;;;;8.77;5.80;;;13.00;99.90;;;;;;5004197;28;20652;-76
2022/05/25 05:43:17;;;;;;;8.67;6.17;;;13.10;99.90;;;;;;5024565;28;20203;-76
2022/05/25 05:45:46;;;;;;;8.07;5.30;;;13.00;99.90;;;;;;5020901;28;20199;-77
2022/05/25 05:48:19;;;;;;;8.25;5.90;;;13.00;99.90;;;;;;5026474;28;20203;-78
2022/05/25 05:50:51;;;;;;;8.43;5.87;;;12.90;99.90;;;;;;5008656;28;20208;-78
2022/05/25 05:53:28;;;;;;;12.60;6.20;;;12.90;99.90;;;;;;5011412;28;20222;-77
2022/05/25 05:55:57;;;;;;;6.67;5.20;;;12.90;99.90;;;;;;5022938;28;20681;-79
2022/05/25 05:58:25;;;;;;;8.50;4.87;;;13.10;99.90;;;;;;5009104;28;20206;-79
2022/05/25 06:00:52;;;;;;;8.65;5.18;;;13.30;99.90;;;;;;5019944;28;20681;-79
2022/05/25 06:03:20;;;;;;;7.97;4.70;;;13.40;99.90;;;;;;5007696;28;20215;-79
2022/05/25 06:05:48;;;;;;;9.73;4.88;;;13.60;99.90;;;;;;5017528;28;20228;-79
2022/05/25 06:08:18;;;;;;;7.22;5.25;;;13.60;99.90;;;;;;5022791;28;20199;-79
2022/05/25 06:10:46;;;;;;;6.10;4.82;;;13.40;99.90;;;;;;5018494;28;20223;-78
2022/05/25 06:13:14;;;;;;;6.80;4.57;;;13.50;99.90;;;;;;5020902;28;20207;-79
2022/05/25 06:21:19;;;;;;;6.28;4.00;;;13.50;99.90;;;;;;5000843;28;20210;-78
2022/05/25 06:23:47;;;;;;;8.45;3.88;;;13.70;99.90;;;;;;5026492;28;20227;-78
2022/05/25 06:26:17;;;;;;;4.68;3.67;;;13.80;99.90;;;;;;5005970;28;20283;-74
2022/05/25 06:28:45;;;;;;;7.00;3.20;;;13.80;99.90;;;;;;5024781;28;20196;-77
2022/05/25 06:31:13;;;;;;;5.32;3.08;;;14.50;99.90;;;;;;5008685;28;20223;-77
